Marselisborg — A8VR8 — position and weather

sailwx.info

Track history (hours):
 
Tides and Currents Weather Stations Pressure Air Temp Water Temp Dewpoint Dewpoint Depression Visibility Wind Speed Wind Dir Waves Ship Positions

Marselisborg

Last reported at 2015-Jul-19 00:33 UTC. Time now 2015-Aug-01 13:50 UTC.
Position N 31°16' E 032°19'.
Warning: this ship's position is 13 days out of date.

Length 138 m; draft 7.4 m.

Type: Ship. MMSI: 636092036.

Date/timePositionNaut miles runAvg speedWind from/ knotsBaromVisibWave heightAir tempDewpointWater temp
2015-Jul-19 00:33N 31°16' E 032°19'5 3.8
2015-Jul-18 23:11N 31°22' E 032°20'0 0.0
2015-Jul-18 18:32N 31°22' E 032°20'0 0.0
2015-Jul-18 17:33N 31°22' E 032°20'1 0.9
2015-Jul-18 16:34N 31°21' E 032°19'1512.0
2015-Jul-18 15:19N 31°34' E 032°10'1114.4
2015-Jul-18 14:33N 31°42' E 032°01'1515.1
2015-Jul-18 13:33N 31°53' E 031°49'1514.6
2015-Jul-18 12:32N 32°03' E 031°37'1814.8
2015-Jul-18 11:17N 32°17' E 031°22'1114.6
2015-Jul-18 10:33N 32°25' E 031°14'1514.6
2015-Jul-18 09:33N 32°36' E 031°02'1414.4
2015-Jul-18 08:33N 32°47' E 030°51'1414.3
2015-Jul-18 07:33N 32°57' E 030°39'1514.6
2015-Jul-18 06:33N 33°08' E 030°28'1514.8
2015-Jul-18 05:33N 33°19' E 030°16'7414.9
2015-Jul-18 00:33N 34°14' E 029°15'12614.9
2015-Jul-17 16:06N 35°47' E 027°32'1315.3
2015-Jul-17 15:17N 35°57' E 027°21'3314.8
2015-Jul-17 13:04N 36°21' E 026°54'815.0
2015-Jul-17 12:33N 36°27' E 026°47'3214.6
2015-Jul-17 10:22N 36°50' E 026°20'2614.4
2015-Jul-17 08:33N 37°12' E 026°03'1313.7
2015-Jul-17 07:34N 37°24' E 025°55'1414.4
2015-Jul-17 06:33N 37°38' E 025°48'  
2015-Jul-12 14:15N 37°46' E 015°56'1214.0
2015-Jul-12 13:24N 37°51' E 015°42'1313.9
2015-Jul-12 12:30N 38°01' E 015°33'1313.5
2015-Jul-12 11:30N 38°14' E 015°37'1310.9
2015-Jul-12 10:20N 38°26' E 015°31'19614.2
2015-Jul-11 20:32N 40°47' E 012°34'5814.2
2015-Jul-11 16:29N 41°28' E 011°41'1414.4
2015-Jul-11 15:33N 41°38' E 011°29'1414.2
2015-Jul-11 14:32N 41°48' E 011°15'1414.1
2015-Jul-11 13:33N 41°58' E 011°02'4214.1
2015-Jul-11 10:33N 42°28' E 010°22'1414.0
2015-Jul-11 09:33N 42°38' E 010°09'1413.8
2015-Jul-11 08:33N 42°47' E 009°55'1413.6
2015-Jul-11 07:33N 42°57' E 009°42'1413.8
2015-Jul-11 06:33N 43°10' E 009°34'1414.2
2015-Jul-11 05:34N 43°23' E 009°27'1413.7
2015-Jul-11 04:33N 43°36' E 009°21'1313.4
2015-Jul-11 03:33N 43°48' E 009°14'1413.9
2015-Jul-11 02:33N 44°01' E 009°08'1414.1
2015-Jul-11 01:33N 44°15' E 009°01'1010.3
2015-Jul-11 00:34N 44°24' E 008°54'1 0.9
2015-Jul-10 23:33N 44°24' E 008°53'0 0.0
2015-Jul-10 22:33N 44°24' E 008°53'0 0.0
2015-Jul-10 21:33N 44°24' E 008°53'0 0.0
2015-Jul-10 20:33N 44°24' E 008°53'0 0.0
2015-Jul-10 19:33N 44°24' E 008°53'0 0.0
2015-Jul-10 18:30N 44°24' E 008°53'0 0.0
2015-Jul-10 17:33N 44°24' E 008°53'0 0.0
2015-Jul-10 16:30N 44°24' E 008°53'0 0.0
2015-Jul-10 15:33N 44°24' E 008°53'0 0.0
2015-Jul-10 14:33N 44°24' E 008°53'0 0.0
2015-Jul-10 13:33N 44°24' E 008°53'0 0.0
2015-Jul-10 12:33N 44°24' E 008°53'0 0.0
2015-Jul-10 11:33N 44°24' E 008°53'0 0.0
2015-Jul-10 10:33N 44°24' E 008°53'0 0.0
2015-Jul-10 09:33N 44°24' E 008°53'0 0.0
2015-Jul-10 08:33N 44°24' E 008°53'0 0.0
2015-Jul-10 07:30N 44°24' E 008°53'0 0.0
2015-Jul-10 06:30N 44°24' E 008°53'0 0.0
2015-Jul-10 05:33N 44°24' E 008°53'0 0.0
2015-Jul-10 04:33N 44°24' E 008°53'0 0.0
2015-Jul-10 03:33N 44°24' E 008°53'0 0.0
2015-Jul-10 02:30N 44°24' E 008°53'0 0.0
2015-Jul-10 01:30N 44°24' E 008°53'1 0.5
2015-Jul-10 00:34N 44°24' E 008°54'7 7.1
2015-Jul-09 23:33N 44°18' E 008°58'1413.7
2015-Jul-09 22:33N 44°05' E 008°52'1414.1
2015-Jul-09 21:33N 43°53' E 008°41'1414.0
2015-Jul-09 20:33N 43°42' E 008°30'1414.3
2015-Jul-09 19:33N 43°30' E 008°18'1414.2
2015-Jul-09 18:33N 43°19' E 008°06'1514.0
2015-Jul-09 17:30N 43°08' E 007°53'2814.0
2015-Jul-09 15:30N 42°49' E 007°25'1314.1
2015-Jul-09 14:34N 42°41' E 007°10'  
Track history (hours):
 
Tides and Currents Weather Stations Pressure Air Temp Water Temp Dewpoint Dewpoint Depression Visibility Wind Speed Wind Dir Waves Ship Positions

Marselisborg

Last reported at 2015-Jul-19 00:33 UTC. Time now 2015-Aug-01 13:50 UTC.
Position N 31°16' E 032°19'.
Warning: this ship's position is 13 days out of date.

Length 138 m; draft 7.4 m.

Type: Ship. MMSI: 636092036.

Date/timePositionNaut miles runAvg speedWind from/ knotsBaromVisibWave heightAir tempDewpointWater temp
2015-Jul-19 00:33N 31°16' E 032°19'5 3.8
2015-Jul-18 23:11N 31°22' E 032°20'0 0.0
2015-Jul-18 18:32N 31°22' E 032°20'0 0.0
2015-Jul-18 17:33N 31°22' E 032°20'1 0.9
2015-Jul-18 16:34N 31°21' E 032°19'1512.0
2015-Jul-18 15:19N 31°34' E 032°10'1114.4
2015-Jul-18 14:33N 31°42' E 032°01'1515.1
2015-Jul-18 13:33N 31°53' E 031°49'1514.6
2015-Jul-18 12:32N 32°03' E 031°37'1814.8
2015-Jul-18 11:17N 32°17' E 031°22'1114.6
2015-Jul-18 10:33N 32°25' E 031°14'1514.6
2015-Jul-18 09:33N 32°36' E 031°02'1414.4
2015-Jul-18 08:33N 32°47' E 030°51'1414.3
2015-Jul-18 07:33N 32°57' E 030°39'1514.6
2015-Jul-18 06:33N 33°08' E 030°28'1514.8
2015-Jul-18 05:33N 33°19' E 030°16'7414.9
2015-Jul-18 00:33N 34°14' E 029°15'12614.9
2015-Jul-17 16:06N 35°47' E 027°32'1315.3
2015-Jul-17 15:17N 35°57' E 027°21'3314.8
2015-Jul-17 13:04N 36°21' E 026°54'815.0
2015-Jul-17 12:33N 36°27' E 026°47'3214.6
2015-Jul-17 10:22N 36°50' E 026°20'2614.4
2015-Jul-17 08:33N 37°12' E 026°03'1313.7
2015-Jul-17 07:34N 37°24' E 025°55'1414.4
2015-Jul-17 06:33N 37°38' E 025°48'  
2015-Jul-12 14:15N 37°46' E 015°56'1214.0
2015-Jul-12 13:24N 37°51' E 015°42'1313.9
2015-Jul-12 12:30N 38°01' E 015°33'1313.5
2015-Jul-12 11:30N 38°14' E 015°37'1310.9
2015-Jul-12 10:20N 38°26' E 015°31'19614.2
2015-Jul-11 20:32N 40°47' E 012°34'5814.2
2015-Jul-11 16:29N 41°28' E 011°41'1414.4
2015-Jul-11 15:33N 41°38' E 011°29'1414.2
2015-Jul-11 14:32N 41°48' E 011°15'1414.1
2015-Jul-11 13:33N 41°58' E 011°02'4214.1
2015-Jul-11 10:33N 42°28' E 010°22'1414.0
2015-Jul-11 09:33N 42°38' E 010°09'1413.8
2015-Jul-11 08:33N 42°47' E 009°55'1413.6
2015-Jul-11 07:33N 42°57' E 009°42'1413.8
2015-Jul-11 06:33N 43°10' E 009°34'1414.2
2015-Jul-11 05:34N 43°23' E 009°27'1413.7
2015-Jul-11 04:33N 43°36' E 009°21'1313.4
2015-Jul-11 03:33N 43°48' E 009°14'1413.9
2015-Jul-11 02:33N 44°01' E 009°08'1414.1
2015-Jul-11 01:33N 44°15' E 009°01'1010.3
2015-Jul-11 00:34N 44°24' E 008°54'1 0.9
2015-Jul-10 23:33N 44°24' E 008°53'0 0.0
2015-Jul-10 22:33N 44°24' E 008°53'0 0.0
2015-Jul-10 21:33N 44°24' E 008°53'0 0.0
2015-Jul-10 20:33N 44°24' E 008°53'0 0.0
2015-Jul-10 19:33N 44°24' E 008°53'0 0.0
2015-Jul-10 18:30N 44°24' E 008°53'0 0.0
2015-Jul-10 17:33N 44°24' E 008°53'0 0.0
2015-Jul-10 16:30N 44°24' E 008°53'0 0.0
2015-Jul-10 15:33N 44°24' E 008°53'0 0.0
2015-Jul-10 14:33N 44°24' E 008°53'0 0.0
2015-Jul-10 13:33N 44°24' E 008°53'0 0.0
2015-Jul-10 12:33N 44°24' E 008°53'0 0.0
2015-Jul-10 11:33N 44°24' E 008°53'0 0.0
2015-Jul-10 10:33N 44°24' E 008°53'0 0.0
2015-Jul-10 09:33N 44°24' E 008°53'0 0.0
2015-Jul-10 08:33N 44°24' E 008°53'0 0.0
2015-Jul-10 07:30N 44°24' E 008°53'0 0.0
2015-Jul-10 06:30N 44°24' E 008°53'0 0.0
2015-Jul-10 05:33N 44°24' E 008°53'0 0.0
2015-Jul-10 04:33N 44°24' E 008°53'0 0.0
2015-Jul-10 03:33N 44°24' E 008°53'0 0.0
2015-Jul-10 02:30N 44°24' E 008°53'0 0.0
2015-Jul-10 01:30N 44°24' E 008°53'1 0.5
2015-Jul-10 00:34N 44°24' E 008°54'7 7.1
2015-Jul-09 23:33N 44°18' E 008°58'1413.7
2015-Jul-09 22:33N 44°05' E 008°52'1414.1
2015-Jul-09 21:33N 43°53' E 008°41'1414.0
2015-Jul-09 20:33N 43°42' E 008°30'1414.3
2015-Jul-09 19:33N 43°30' E 008°18'1414.2
2015-Jul-09 18:33N 43°19' E 008°06'1514.0
2015-Jul-09 17:30N 43°08' E 007°53'2814.0
2015-Jul-09 15:30N 42°49' E 007°25'1314.1
2015-Jul-09 14:34N 42°41' E 007°10'  

Dump ship's entire track history